createdAt,value
2022-12-04T00:01:20.586Z,12.00
2022-12-04T00:03:48.893Z,12.07
2022-12-04T00:06:19.404Z,11.88
2022-12-04T00:08:49.205Z,11.43
2022-12-04T00:11:20.122Z,12.05
2022-12-04T00:13:49.849Z,12.57
2022-12-04T00:16:21.175Z,12.05
2022-12-04T00:18:49.625Z,12.88
2022-12-04T00:21:18.891Z,12.52
2022-12-04T00:23:47.950Z,12.95
2022-12-04T00:26:17.856Z,12.95
2022-12-04T00:28:46.551Z,12.50
2022-12-04T00:31:18.117Z,12.95
2022-12-04T00:33:46.881Z,12.23
2022-12-04T00:36:16.620Z,11.93
2022-12-04T00:38:44.791Z,11.63
2022-12-04T00:41:14.915Z,12.40
2022-12-04T00:43:43.353Z,12.73
2022-12-04T00:46:11.359Z,12.52
2022-12-04T00:48:40.988Z,12.20
2022-12-04T00:51:11.096Z,12.43
2022-12-04T00:53:39.383Z,11.73
2022-12-04T00:56:08.856Z,12.80
2022-12-04T00:58:37.102Z,12.35
2022-12-04T01:01:07.322Z,12.02
2022-12-04T01:03:36.066Z,10.82
2022-12-04T01:06:06.294Z,11.73
2022-12-04T01:08:34.700Z,11.23
2022-12-04T01:11:07.701Z,12.30
2022-12-04T01:16:03.656Z,10.65
2022-12-04T01:18:32.134Z,12.00
2022-12-04T01:21:00.107Z,12.60
2022-12-04T01:23:29.420Z,11.65
2022-12-04T01:25:59.272Z,12.00
2022-12-04T01:28:27.705Z,11.75
2022-12-04T01:31:02.928Z,11.32
2022-12-04T01:33:31.590Z,10.80
2022-12-04T01:36:00.991Z,10.75
2022-12-04T01:38:30.969Z,12.32
2022-12-04T01:40:59.723Z,12.25
2022-12-04T01:43:31.467Z,11.07
2022-12-04T01:46:00.696Z,10.70
2022-12-04T01:48:32.145Z,12.07
2022-12-04T01:51:04.055Z,12.02
2022-12-04T01:53:35.599Z,11.10
2022-12-04T01:56:04.781Z,12.32
2022-12-04T01:58:38.391Z,10.00
2022-12-04T02:01:09.582Z,10.77
2022-12-04T02:03:38.249Z,11.50
2022-12-04T02:06:06.665Z,10.82
2022-12-04T02:08:37.371Z,11.43
2022-12-04T02:11:15.049Z,10.65
2022-12-04T02:13:53.648Z,11.55
2022-12-04T02:16:28.894Z,11.23
2022-12-04T02:19:06.179Z,12.32
2022-12-04T02:21:37.618Z,11.82
2022-12-04T02:24:30.303Z,12.07
2022-12-04T02:27:03.132Z,11.02
2022-12-04T02:29:40.371Z,11.63
2022-12-04T02:32:16.502Z,11.02
2022-12-04T02:34:48.627Z,11.65
2022-12-04T02:37:22.601Z,11.83
2022-12-04T02:39:57.369Z,11.98
2022-12-04T02:42:32.401Z,12.73
2022-12-04T02:45:04.543Z,12.23
2022-12-04T02:47:34.832Z,10.83
2022-12-04T02:50:07.072Z,14.15
2022-12-04T02:52:39.743Z,11.77
2022-12-04T02:55:12.163Z,12.40
2022-12-04T02:57:45.104Z,11.95
2022-12-04T03:00:16.010Z,12.20
2022-12-04T03:02:53.386Z,11.90
2022-12-04T03:05:27.830Z,12.00
2022-12-04T03:08:01.211Z,12.85
2022-12-04T03:10:34.650Z,13.35
2022-12-04T03:13:09.481Z,13.55
2022-12-04T03:15:43.909Z,12.52
2022-12-04T03:18:16.985Z,12.15
2022-12-04T03:23:17.616Z,10.50
2022-12-04T03:25:51.128Z,11.52
2022-12-04T03:28:27.158Z,11.77
2022-12-04T03:31:03.718Z,11.70
2022-12-04T03:33:39.508Z,12.43
2022-12-04T03:36:14.716Z,12.48
2022-12-04T03:38:47.104Z,11.50
2022-12-04T03:41:19.086Z,11.68
2022-12-04T03:43:51.408Z,12.38
2022-12-04T03:46:27.330Z,12.20
2022-12-04T03:49:03.323Z,11.75
2022-12-04T03:51:35.227Z,12.60
2022-12-04T03:54:08.816Z,12.75
2022-12-04T03:56:40.871Z,12.35
2022-12-04T03:59:12.556Z,12.03
2022-12-04T04:01:46.394Z,11.50
2022-12-04T04:04:19.132Z,12.23
2022-12-04T04:06:53.846Z,11.40
2022-12-04T04:09:26.783Z,11.77
2022-12-04T04:11:58.047Z,11.88
2022-12-04T04:14:45.927Z,11.05
2022-12-04T04:17:38.758Z,10.43
2022-12-04T04:20:27.639Z,12.05
2022-12-04T04:23:17.291Z,11.45
2022-12-04T04:25:46.628Z,10.68
2022-12-04T04:28:32.408Z,10.82
2022-12-04T04:31:09.662Z,10.55
2022-12-04T04:33:47.756Z,10.38
2022-12-04T04:36:22.420Z,11.15
2022-12-04T04:39:01.291Z,11.82
2022-12-04T04:41:36.973Z,10.68
2022-12-04T04:44:13.206Z,11.10
2022-12-04T04:46:46.225Z,10.07
2022-12-04T04:51:45.227Z,11.35
2022-12-04T04:54:15.717Z,11.50
2022-12-04T04:56:44.850Z,10.18
2022-12-04T04:59:13.230Z,12.38
2022-12-04T05:01:43.260Z,11.50
2022-12-04T05:04:11.901Z,12.30
2022-12-04T05:06:41.332Z,12.00
2022-12-04T05:09:09.510Z,12.32
2022-12-04T05:11:37.402Z,11.20
2022-12-04T05:14:06.045Z,12.55
2022-12-04T05:16:34.291Z,12.18
2022-12-04T05:19:20.031Z,11.30
2022-12-04T05:21:49.376Z,12.30
2022-12-04T05:24:17.399Z,11.52
2022-12-04T05:26:45.832Z,12.27
2022-12-04T05:29:13.722Z,10.82
2022-12-04T05:31:41.731Z,11.88
2022-12-04T05:34:09.773Z,11.73
2022-12-04T05:36:38.062Z,12.35
2022-12-04T05:39:07.398Z,11.32
2022-12-04T05:41:35.339Z,10.45
2022-12-04T05:44:03.324Z,10.77
2022-12-04T05:46:31.330Z,10.75
2022-12-04T05:48:59.383Z,12.57
2022-12-04T05:51:27.413Z,12.85
2022-12-04T05:53:55.306Z,12.55
2022-12-04T05:56:24.623Z,12.27
2022-12-04T05:58:52.631Z,11.95
2022-12-04T06:01:23.098Z,10.63
2022-12-04T06:03:51.709Z,11.35
2022-12-04T06:06:22.662Z,11.13
2022-12-04T06:08:51.188Z,11.63
2022-12-04T06:11:21.671Z,11.93
2022-12-04T06:13:51.716Z,12.50
2022-12-04T06:16:22.141Z,11.45
2022-12-04T06:18:52.306Z,11.70
2022-12-04T06:21:21.734Z,11.43
2022-12-04T06:23:49.793Z,11.00
2022-12-04T06:26:17.877Z,10.73
2022-12-04T06:28:46.077Z,10.52
2022-12-04T06:31:19.071Z,10.32
2022-12-04T06:36:17.236Z,10.35
2022-12-04T06:38:46.348Z,11.27
2022-12-04T06:41:17.056Z,10.32
2022-12-04T06:43:45.600Z,11.57
2022-12-04T06:46:17.029Z,10.50
2022-12-04T06:48:45.209Z,10.70
2022-12-04T06:51:15.216Z,10.15
2022-12-04T06:53:43.382Z,9.75
2022-12-04T06:56:14.316Z,11.18
2022-12-04T06:58:42.300Z,9.95
2022-12-04T07:01:11.861Z,9.65
2022-12-04T07:03:46.325Z,9.23
2022-12-04T07:06:19.237Z,9.82
2022-12-04T07:08:49.044Z,9.20
2022-12-04T07:11:17.267Z,9.40
2022-12-04T07:13:45.325Z,10.18
2022-12-04T07:16:15.658Z,8.35
2022-12-04T07:18:45.099Z,9.50
2022-12-04T07:21:17.008Z,9.02
2022-12-04T07:23:45.865Z,8.40
2022-12-04T07:26:15.030Z,8.88
2022-12-04T07:28:45.183Z,9.00
2022-12-04T07:31:16.343Z,9.00
2022-12-04T07:33:46.815Z,9.50
2022-12-04T07:36:16.656Z,8.88
2022-12-04T07:38:45.158Z,9.40
2022-12-04T07:41:14.440Z,10.13
2022-12-04T07:43:42.886Z,9.43
2022-12-04T07:46:13.205Z,9.93
2022-12-04T07:48:41.619Z,9.82
2022-12-04T07:51:12.852Z,8.98
2022-12-04T07:53:41.988Z,10.00
2022-12-04T07:56:11.479Z,9.68
2022-12-04T07:58:39.695Z,11.57
2022-12-04T08:01:10.901Z,9.30
2022-12-04T08:03:45.214Z,9.45
2022-12-04T08:06:17.746Z,10.25
2022-12-04T08:08:45.868Z,8.73
2022-12-04T08:11:16.597Z,9.15
2022-12-04T08:13:44.975Z,9.43
2022-12-04T08:16:14.319Z,9.95
2022-12-04T08:18:46.790Z,10.52
2022-12-04T08:21:19.317Z,8.50
2022-12-04T08:23:48.751Z,9.35
2022-12-04T08:26:17.452Z,8.65
2022-12-04T08:28:46.639Z,9.63
2022-12-04T08:31:17.025Z,8.75
2022-12-04T08:33:46.595Z,8.73
2022-12-04T08:36:18.527Z,9.52
2022-12-04T08:38:47.615Z,13.85
2022-12-04T08:41:17.659Z,10.27
2022-12-04T08:43:46.006Z,9.82
2022-12-04T08:46:17.120Z,10.40
2022-12-04T08:48:46.207Z,10.07
2022-12-04T08:51:15.650Z,9.75
2022-12-04T08:53:45.248Z,9.60
2022-12-04T08:56:13.534Z,10.25
2022-12-04T08:58:41.642Z,11.52
2022-12-04T09:01:11.913Z,9.45
2022-12-04T09:03:40.489Z,10.57
2022-12-04T09:06:13.101Z,10.63
2022-12-04T09:08:41.675Z,11.70
2022-12-04T09:11:12.834Z,11.30
2022-12-04T09:13:42.252Z,11.70
2022-12-04T09:16:13.255Z,10.43
2022-12-04T09:18:41.669Z,10.85
2022-12-04T09:21:12.065Z,10.57
2022-12-04T09:23:41.364Z,10.05
2022-12-04T09:26:20.297Z,8.85
2022-12-04T09:28:48.484Z,9.00
2022-12-04T09:31:17.391Z,10.13
2022-12-04T09:33:45.940Z,9.68
2022-12-04T09:36:16.205Z,10.90
2022-12-04T09:38:45.425Z,10.93
2022-12-04T09:41:47.499Z,9.23
2022-12-04T09:44:22.300Z,9.70
2022-12-04T09:46:55.347Z,8.93
2022-12-04T09:51:55.939Z,9.88
2022-12-04T09:54:27.374Z,9.27
2022-12-04T09:57:01.552Z,11.30
2022-12-04T09:59:32.943Z,12.55
2022-12-04T10:02:11.475Z,10.25
2022-12-04T10:04:39.560Z,10.95
2022-12-04T10:07:14.926Z,10.52
2022-12-04T10:09:49.779Z,11.60
2022-12-04T10:12:28.748Z,10.18
2022-12-04T10:15:18.005Z,10.18
2022-12-04T10:18:05.139Z,12.15
2022-12-04T10:20:51.901Z,10.98
2022-12-04T10:23:27.918Z,11.48
2022-12-04T10:25:56.681Z,12.25
2022-12-04T10:28:32.142Z,12.82
2022-12-04T10:31:02.973Z,13.77
2022-12-04T10:33:37.046Z,13.65
2022-12-04T10:36:06.372Z,12.27
2022-12-04T10:38:40.811Z,11.93
2022-12-04T10:41:15.551Z,13.10
2022-12-04T10:43:46.751Z,13.25
2022-12-04T10:46:17.348Z,11.93
2022-12-04T10:48:50.253Z,12.73
2022-12-04T10:51:20.277Z,12.77
2022-12-04T10:53:49.771Z,13.30
2022-12-04T10:56:24.743Z,12.07
2022-12-04T10:59:02.816Z,14.60
2022-12-04T11:01:32.444Z,14.45
2022-12-04T11:04:04.891Z,14.32
2022-12-04T11:06:33.466Z,14.82
2022-12-04T11:09:02.888Z,14.00
2022-12-04T11:11:32.085Z,13.85
2022-12-04T11:14:07.253Z,14.50
2022-12-04T11:16:40.224Z,14.85
2022-12-04T11:21:50.648Z,12.77
2022-12-04T11:24:23.685Z,14.90
2022-12-04T11:29:29.124Z,12.07
2022-12-04T11:32:01.528Z,13.18
2022-12-04T11:34:37.478Z,12.13
2022-12-04T11:37:06.984Z,12.88
2022-12-04T11:39:38.221Z,12.32
2022-12-04T11:42:18.086Z,13.85
2022-12-04T11:44:54.428Z,13.75
2022-12-04T11:47:24.083Z,13.93
2022-12-04T11:50:05.999Z,12.98
2022-12-04T11:52:48.147Z,12.70
2022-12-04T11:55:28.515Z,12.45
2022-12-04T11:58:16.577Z,13.85
2022-12-04T12:00:56.422Z,12.45
2022-12-04T12:03:33.064Z,13.20
2022-12-04T12:06:14.863Z,13.23
2022-12-04T12:09:18.732Z,13.60
2022-12-04T12:11:55.405Z,13.82
2022-12-04T12:14:31.126Z,13.82
2022-12-04T12:17:12.473Z,13.70
2022-12-04T12:20:04.004Z,12.68
2022-12-04T12:22:58.521Z,14.00
2022-12-04T12:28:09.521Z,12.82
2022-12-04T12:30:49.877Z,12.95
2022-12-04T12:33:24.870Z,13.00
2022-12-04T12:36:01.546Z,14.38
2022-12-04T12:38:34.785Z,13.52
2022-12-04T12:41:07.309Z,13.27
2022-12-04T12:43:38.609Z,15.07
2022-12-04T12:46:12.250Z,14.10
2022-12-04T12:48:52.499Z,13.13
2022-12-04T12:51:34.243Z,14.15
2022-12-04T12:54:13.305Z,13.63
2022-12-04T12:56:49.557Z,14.10
2022-12-04T12:59:22.191Z,14.20
2022-12-04T13:02:00.308Z,14.07
2022-12-04T13:04:38.679Z,16.13
2022-12-04T13:07:27.497Z,14.90
2022-12-04T13:10:06.195Z,13.95
2022-12-04T13:12:43.435Z,14.75
2022-12-04T13:15:16.474Z,15.50
2022-12-04T13:20:23.144Z,13.30
2022-12-04T13:23:06.580Z,14.05
2022-12-04T13:25:48.965Z,13.85
2022-12-04T13:28:29.856Z,14.23
2022-12-04T13:31:04.489Z,15.48
2022-12-04T13:33:45.524Z,14.02
2022-12-04T13:36:35.069Z,15.60
2022-12-04T13:39:29.608Z,16.85
2022-12-04T13:42:00.284Z,15.13
2022-12-04T13:44:29.790Z,15.35
2022-12-04T13:47:01.106Z,15.57
2022-12-04T13:49:32.094Z,16.10
2022-12-04T13:52:06.140Z,16.88
2022-12-04T13:54:35.701Z,15.57
2022-12-04T13:57:22.237Z,16.67
2022-12-04T13:59:51.104Z,15.57
2022-12-04T14:02:27.733Z,15.50
2022-12-04T14:04:59.952Z,18.80
2022-12-04T14:07:32.687Z,17.38
2022-12-04T14:10:04.753Z,17.73
2022-12-04T14:12:36.126Z,16.47
2022-12-04T14:15:07.490Z,17.02
2022-12-04T14:17:37.436Z,14.70
2022-12-04T14:20:08.890Z,16.50
2022-12-04T14:22:45.695Z,15.38
2022-12-04T14:25:35.791Z,17.52
2022-12-04T14:28:24.475Z,15.27
2022-12-04T14:31:04.859Z,16.77
2022-12-04T14:33:35.013Z,16.55
2022-12-04T14:36:05.303Z,17.05
2022-12-04T14:38:35.345Z,16.33
2022-12-04T14:41:04.431Z,17.33
2022-12-04T14:43:38.934Z,17.08
2022-12-04T14:46:16.558Z,16.52
2022-12-04T14:48:53.885Z,16.23
2022-12-04T14:51:31.346Z,16.55
2022-12-04T14:54:09.908Z,15.98
2022-12-04T14:56:50.255Z,15.45
2022-12-04T14:59:19.868Z,17.42
2022-12-04T15:01:49.466Z,17.55
2022-12-04T15:04:24.793Z,18.40
2022-12-04T15:06:59.952Z,17.15
2022-12-04T15:09:48.096Z,20.55
2022-12-04T15:12:34.736Z,20.48
2022-12-04T15:15:09.693Z,19.52
2022-12-04T15:17:38.378Z,19.00
2022-12-04T15:20:18.603Z,19.73
2022-12-04T15:22:46.850Z,19.67
2022-12-04T15:25:23.052Z,20.58
2022-12-04T15:27:53.393Z,20.67
2022-12-04T15:30:23.965Z,19.95
2022-12-04T15:32:54.401Z,19.95
2022-12-04T15:35:26.637Z,22.27
2022-12-04T15:37:55.073Z,21.20
2022-12-04T15:40:27.528Z,19.50
2022-12-04T15:43:06.876Z,20.25
2022-12-04T15:45:35.364Z,21.48
2022-12-04T15:48:03.460Z,20.60
2022-12-04T15:50:32.217Z,22.50
2022-12-04T15:53:03.774Z,19.50
2022-12-04T15:55:34.996Z,21.77
2022-12-04T15:58:05.799Z,21.35
2022-12-04T16:00:36.853Z,22.27
2022-12-04T16:03:08.815Z,22.60
2022-12-04T16:05:37.485Z,23.95
2022-12-04T16:08:23.878Z,23.60
2022-12-04T16:11:02.435Z,21.95
2022-12-04T16:13:33.800Z,20.50
2022-12-04T16:16:03.010Z,26.27
2022-12-04T16:18:31.376Z,22.80
2022-12-04T16:20:59.930Z,21.63
2022-12-04T16:23:28.405Z,21.65
2022-12-04T16:25:56.421Z,23.30
2022-12-04T16:28:25.761Z,20.85
2022-12-04T16:30:53.842Z,21.35
2022-12-04T16:33:21.861Z,20.30
2022-12-04T16:35:50.172Z,22.00
2022-12-04T16:38:18.852Z,22.75
2022-12-04T16:40:48.437Z,20.67
2022-12-04T16:43:18.116Z,20.08
2022-12-04T16:45:50.915Z,20.10
2022-12-04T16:48:19.046Z,19.85
2022-12-04T16:50:47.596Z,20.00
2022-12-04T16:53:18.466Z,18.65
2022-12-04T16:55:48.021Z,19.77
2022-12-04T16:58:16.688Z,19.30
2022-12-04T17:00:47.211Z,19.35
2022-12-04T17:03:19.469Z,20.50
2022-12-04T17:05:47.538Z,19.35
2022-12-04T17:08:15.631Z,19.35
2022-12-04T17:10:43.622Z,20.10
2022-12-04T17:13:11.708Z,21.33
2022-12-04T17:15:39.636Z,22.02
2022-12-04T17:18:12.892Z,19.38
2022-12-04T17:20:45.480Z,21.27
2022-12-04T17:23:14.226Z,20.65
2022-12-04T17:25:42.266Z,19.95
2022-12-04T17:28:10.238Z,19.73
2022-12-04T17:30:38.207Z,19.67
2022-12-04T17:33:06.515Z,19.27
2022-12-04T17:35:34.467Z,20.48
2022-12-04T17:38:06.106Z,18.10
2022-12-04T17:40:34.605Z,20.15
2022-12-04T17:43:02.681Z,20.45
2022-12-04T17:45:30.737Z,19.48
2022-12-04T17:48:00.481Z,18.27
2022-12-04T17:50:28.502Z,19.35
2022-12-04T17:52:56.475Z,20.33
2022-12-04T17:55:25.768Z,18.95
2022-12-04T17:57:53.739Z,20.38
2022-12-04T18:00:21.754Z,20.27
2022-12-04T18:02:53.205Z,20.83
2022-12-04T18:05:21.844Z,21.02
2022-12-04T18:07:50.102Z,22.20
2022-12-04T18:10:18.312Z,20.33
2022-12-04T18:12:47.630Z,19.23
2022-12-04T18:15:16.190Z,19.60
2022-12-04T18:17:44.231Z,18.95
2022-12-04T18:20:13.077Z,19.92
2022-12-04T18:22:40.991Z,20.58
2022-12-04T18:25:10.359Z,20.25
2022-12-04T18:27:41.849Z,22.35
2022-12-04T18:30:12.482Z,22.65
2022-12-04T18:32:40.401Z,23.25
2022-12-04T18:35:09.129Z,20.92
2022-12-04T18:37:37.455Z,19.58
2022-12-04T18:40:07.243Z,18.00
2022-12-04T18:42:35.653Z,17.88
2022-12-04T18:45:03.587Z,18.65
2022-12-04T18:47:32.943Z,19.48
2022-12-04T18:50:01.252Z,19.02
2022-12-04T18:52:29.387Z,19.42
2022-12-04T18:54:57.484Z,18.90
2022-12-04T18:57:25.567Z,19.05
2022-12-04T18:59:53.587Z,18.08
2022-12-04T19:02:21.749Z,22.15
2022-12-04T19:04:51.320Z,21.42
2022-12-04T19:07:19.362Z,23.85
2022-12-04T19:10:10.505Z,21.25
2022-12-04T19:12:35.632Z,20.42
2022-12-04T19:15:03.991Z,18.70
2022-12-04T19:17:32.002Z,18.85
2022-12-04T19:20:01.618Z,17.92
2022-12-04T19:22:30.777Z,19.05
2022-12-04T19:24:58.835Z,22.15
2022-12-04T19:27:27.668Z,20.85
2022-12-04T19:29:56.095Z,20.42
2022-12-04T19:32:24.695Z,20.23
2022-12-04T19:34:52.980Z,18.52
2022-12-04T19:37:22.673Z,20.30
2022-12-04T19:39:50.990Z,22.13
2022-12-04T19:42:19.298Z,32.47
2022-12-04T19:44:49.143Z,19.98
2022-12-04T19:47:18.176Z,19.70
2022-12-04T19:49:46.511Z,21.70
2022-12-04T19:52:14.771Z,47.03
2022-12-04T19:54:44.579Z,43.30
2022-12-04T19:57:14.709Z,20.98
2022-12-04T19:59:46.195Z,20.15
2022-12-04T20:02:15.421Z,19.60
2022-12-04T20:04:44.416Z,19.15
2022-12-04T20:07:12.822Z,17.92
2022-12-04T20:09:41.256Z,18.80
2022-12-04T20:12:10.694Z,18.20
2022-12-04T20:14:39.123Z,20.02
2022-12-04T20:17:07.574Z,18.67
2022-12-04T20:19:35.695Z,18.55
2022-12-04T20:22:03.790Z,18.50
2022-12-04T20:24:32.865Z,18.45
2022-12-04T20:27:02.964Z,19.25
2022-12-04T20:29:32.631Z,18.83
2022-12-04T20:32:01.380Z,18.98
2022-12-04T20:34:30.874Z,17.85
2022-12-04T20:36:59.386Z,17.67
2022-12-04T20:39:28.259Z,18.33
2022-12-04T20:41:56.546Z,18.55
2022-12-04T20:44:24.900Z,17.83
2022-12-04T20:46:54.446Z,18.55
2022-12-04T20:49:23.056Z,19.27
2022-12-04T20:51:52.355Z,18.83
2022-12-04T20:54:22.717Z,18.65
2022-12-04T20:56:53.138Z,20.15
2022-12-04T20:59:23.291Z,19.50
2022-12-04T21:01:52.790Z,19.10
2022-12-04T21:04:23.245Z,19.77
2022-12-04T21:06:52.012Z,19.15
2022-12-04T21:09:24.155Z,19.30
2022-12-04T21:11:54.546Z,19.47
2022-12-04T21:14:42.402Z,18.88
2022-12-04T21:17:16.563Z,19.73
2022-12-04T21:19:47.393Z,19.95
2022-12-04T21:22:16.501Z,19.40
2022-12-04T21:24:44.649Z,20.08
2022-12-04T21:27:20.407Z,21.30
2022-12-04T21:29:52.481Z,21.30
2022-12-04T21:32:21.457Z,19.33
2022-12-04T21:34:51.920Z,20.00
2022-12-04T21:37:20.611Z,20.17
2022-12-04T21:39:49.015Z,20.63
2022-12-04T21:42:32.449Z,21.38
2022-12-04T21:45:06.129Z,21.00
2022-12-04T21:47:34.358Z,18.52
2022-12-04T21:50:05.008Z,20.48
2022-12-04T21:52:33.190Z,20.77
2022-12-04T21:55:01.270Z,19.02
2022-12-04T21:57:29.703Z,20.95
2022-12-04T21:59:57.995Z,20.10
2022-12-04T22:02:26.482Z,21.80
2022-12-04T22:04:54.715Z,21.63
2022-12-04T22:07:24.279Z,19.23
2022-12-04T22:09:52.234Z,20.55
2022-12-04T22:12:47.827Z,21.33
2022-12-04T22:15:09.685Z,20.33
2022-12-04T22:17:39.412Z,20.33
2022-12-04T22:20:09.074Z,21.55
2022-12-04T22:22:38.619Z,19.30
2022-12-04T22:25:07.376Z,22.67
2022-12-04T22:27:35.328Z,20.65
2022-12-04T22:30:03.775Z,20.63
2022-12-04T22:32:32.430Z,21.10
2022-12-04T22:35:00.989Z,20.38
2022-12-04T22:37:29.200Z,19.85
2022-12-04T22:39:58.843Z,19.75
2022-12-04T22:42:27.049Z,21.75
2022-12-04T22:44:55.017Z,20.90
2022-12-04T22:47:23.166Z,20.23
2022-12-04T22:49:51.493Z,20.45
2022-12-04T22:52:20.110Z,20.02
2022-12-04T22:54:48.286Z,20.75
2022-12-04T22:57:17.747Z,22.05
2022-12-04T22:59:46.408Z,21.27
2022-12-04T23:02:14.792Z,21.15
2022-12-04T23:04:43.662Z,19.38
2022-12-04T23:07:11.754Z,21.23
2022-12-04T23:09:40.430Z,19.42
2022-12-04T23:12:08.633Z,20.73
2022-12-04T23:14:38.155Z,21.20
2022-12-04T23:17:06.302Z,21.55
2022-12-04T23:19:34.278Z,20.27
2022-12-04T23:22:02.270Z,21.75
2022-12-04T23:24:30.531Z,21.92
2022-12-04T23:26:58.832Z,21.00
2022-12-04T23:29:52.153Z,21.48
2022-12-04T23:32:16.501Z,21.17
2022-12-04T23:34:44.438Z,20.25
2022-12-04T23:37:12.624Z,22.33
2022-12-04T23:39:40.860Z,20.98
2022-12-04T23:42:08.908Z,21.33
2022-12-04T23:44:36.828Z,21.58
2022-12-04T23:47:05.496Z,20.55
2022-12-04T23:49:35.094Z,21.65
2022-12-04T23:52:03.363Z,20.33
2022-12-04T23:54:35.037Z,21.55
2022-12-04T23:57:03.320Z,21.90
2022-12-04T23:59:31.530Z,21.50
